Time;durP1;ratioP1;P1;durP2;ratioP2;P2;SDS_P1;SDS_P2;PMS_P1;PMS_P2;Temp;Humidity;BMP_temperature;BMP_pressure;BME280_temperature;BME280_humidity;BME280_pressure;Samples;Min_cycle;Max_cycle;Signal;HPM_P1;HPM_P2
2023/03/20 00:00:48;;;;;;;24.02;16.65;;;5.60;89.00;;;;;;5022651;28;20064;-76
2023/03/20 00:03:15;;;;;;;25.80;17.73;;;5.60;89.10;;;;;;5002075;28;20037;-80
2023/03/20 00:05:41;;;;;;;26.50;16.30;;;5.60;89.00;;;;;;5024431;28;20040;-82
2023/03/20 00:08:10;;;;;;;22.85;15.82;;;5.60;88.90;;;;;;5029307;28;20374;-73
2023/03/20 00:10:37;;;;;;;22.75;15.80;;;5.50;89.00;;;;;;5030179;28;20108;-78
2023/03/20 00:13:05;;;;;;;23.38;15.52;;;5.50;89.10;;;;;;5026380;28;20017;-73
2023/03/20 00:15:38;;;;;;;26.23;15.73;;;5.50;89.20;;;;;;5025729;28;20072;-74
2023/03/20 00:18:24;;;;;;;28.70;15.65;;;5.60;89.30;;;;;;5040400;28;20346;-74
2023/03/20 00:20:50;;;;;;;27.85;16.08;;;5.50;89.20;;;;;;5025393;28;20028;-73
2023/03/20 00:23:17;;;;;;;25.10;16.20;;;5.50;89.30;;;;;;5028589;28;20022;-78
2023/03/20 00:25:44;;;;;;;24.20;15.52;;;5.50;89.30;;;;;;5023096;28;20026;-73
2023/03/20 00:28:29;;;;;;;29.85;17.48;;;5.50;89.30;;;;;;5028016;28;20557;-75
2023/03/20 00:30:55;;;;;;;;;;;5.50;89.40;;;;;;5023858;28;20242;-73
2023/03/20 00:33:21;;;;;;;27.63;16.88;;;5.50;89.40;;;;;;5023556;28;20406;-74
2023/03/20 00:35:47;;;;;;;25.70;16.23;;;5.50;89.50;;;;;;5023504;28;20025;-73
2023/03/20 00:38:13;;;;;;;26.20;16.13;;;5.60;89.50;;;;;;5027387;28;20469;-75
2023/03/20 00:40:39;;;;;;;25.20;15.20;;;5.60;89.50;;;;;;5024959;28;20079;-80
2023/03/20 00:43:05;;;;;;;21.23;13.80;;;5.60;89.40;;;;;;5026627;28;20028;-74
2023/03/20 00:45:33;;;;;;;23.40;14.43;;;5.60;89.40;;;;;;5023586;28;20833;-73
2023/03/20 00:47:59;;;;;;;23.83;14.60;;;5.60;89.30;;;;;;5030508;28;20049;-85
2023/03/20 00:50:28;;;;;;;22.77;13.82;;;5.70;89.30;;;;;;5025406;28;20052;-72
2023/03/20 00:52:56;;;;;;;26.30;15.15;;;5.70;89.20;;;;;;5010636;28;20477;-73
2023/03/20 00:55:26;;;;;;;23.02;13.45;;;5.70;89.20;;;;;;5029365;28;20026;-84
2023/03/20 00:57:56;;;;;;;23.42;13.27;;;5.70;89.30;;;;;;5029372;28;20056;-81
2023/03/20 01:00:34;;;;;;;26.25;13.80;;;5.70;89.20;;;;;;5023776;28;20112;-73
2023/03/20 01:03:02;;;;;;;23.52;13.05;;;5.70;89.20;;;;;;5016780;28;20034;-74
2023/03/20 01:05:28;;;;;;;21.10;13.13;;;5.60;89.20;;;;;;5024182;28;20132;-74
2023/03/20 01:07:55;;;;;;;25.83;12.38;;;5.60;89.30;;;;;;5025939;28;20511;-78
2023/03/20 01:10:24;;;;;;;24.80;12.63;;;5.70;89.30;;;;;;5025590;28;20221;-75
2023/03/20 01:12:51;;;;;;;24.90;12.18;;;5.60;89.30;;;;;;5023557;28;20030;-73
2023/03/20 01:15:24;;;;;;;24.83;12.18;;;5.60;89.30;;;;;;5027133;28;20468;-78
2023/03/20 01:17:51;;;;;;;25.33;12.43;;;5.60;89.30;;;;;;5031720;28;20033;-74
2023/03/20 01:20:24;;;;;;;25.48;12.40;;;5.60;89.30;;;;;;5025322;28;20026;-74
2023/03/20 01:22:50;;;;;;;23.60;13.30;;;5.60;89.30;;;;;;5017805;28;20030;-73
2023/03/20 01:25:17;;;;;;;29.38;12.55;;;5.60;89.50;;;;;;5026143;28;20076;-82
2023/03/20 01:27:51;;;;;;;26.67;13.07;;;5.60;89.40;;;;;;5024101;28;20053;-77
2023/03/20 01:30:33;;;;;;;23.83;12.45;;;5.60;89.50;;;;;;5016688;28;20020;-74
2023/03/20 01:33:00;;;;;;;26.98;14.23;;;5.60;89.50;;;;;;5029644;28;20454;-73
2023/03/20 01:35:27;;;;;;;22.13;12.27;;;5.60;89.50;;;;;;5031008;28;20033;-78
2023/03/20 01:37:55;;;;;;;21.45;12.35;;;5.60;89.70;;;;;;5028402;28;20046;-78
2023/03/20 01:40:31;;;;;;;24.95;13.55;;;5.60;89.70;;;;;;5024076;28;20033;-72
2023/03/20 01:42:57;;;;;;;24.30;13.30;;;5.60;89.70;;;;;;5025400;28;20110;-75
2023/03/20 01:45:29;;;;;;;23.80;12.88;;;5.60;89.70;;;;;;5003843;28;20026;-75
2023/03/20 01:47:55;;;;;;;26.67;13.55;;;5.60;89.80;;;;;;5030601;28;20111;-80
2023/03/20 01:50:25;;;;;;;23.65;13.45;;;5.60;89.80;;;;;;5033539;28;20385;-73
2023/03/20 01:53:15;;;;;;;20.85;11.73;;;5.60;89.80;;;;;;5024355;28;20115;-74
2023/03/20 01:55:42;;;;;;;26.67;12.85;;;5.60;89.80;;;;;;5014830;28;20029;-80
2023/03/20 01:58:14;;;;;;;23.98;13.57;;;5.60;89.80;;;;;;5030709;28;20199;-76
2023/03/20 02:00:40;;;;;;;32.60;13.15;;;5.60;89.80;;;;;;5023134;28;20802;-78
2023/03/20 02:03:08;;;;;;;25.63;13.10;;;5.60;89.80;;;;;;5027961;28;20026;-74
2023/03/20 02:05:35;;;;;;;25.90;12.73;;;5.60;89.90;;;;;;5033957;28;20523;-73
2023/03/20 02:08:30;;;;;;;22.88;13.38;;;5.60;89.90;;;;;;5008520;28;20037;-74
2023/03/20 02:10:59;;;;;;;28.33;12.60;;;5.60;89.80;;;;;;5033485;28;20242;-75
2023/03/20 02:13:27;;;;;;;29.13;13.45;;;5.60;89.90;;;;;;5030727;28;20037;-80
2023/03/20 02:16:06;;;;;;;25.73;12.38;;;5.60;89.90;;;;;;5028972;28;20053;-73
2023/03/20 02:18:33;;;;;;;26.52;14.00;;;5.60;90.10;;;;;;5027732;28;20092;-72
2023/03/20 02:21:36;;;;;;;21.95;12.48;;;5.70;90.20;;;;;;5026018;28;20045;-73
2023/03/20 02:24:19;;;;;;;28.00;12.77;;;5.60;90.10;;;;;;5023784;28;20040;-73
2023/03/20 02:26:45;;;;;;;27.80;13.55;;;5.70;90.20;;;;;;5027614;28;20045;-75
2023/03/20 02:29:49;;;;;;;28.40;12.57;;;5.70;90.20;;;;;;5040750;28;20049;-75
2023/03/20 02:33:00;;;;;;;20.67;11.50;;;5.70;90.20;;;;;;5030482;28;20141;-78
2023/03/20 02:35:40;;;;;;;24.30;12.52;;;5.70;90.20;;;;;;4993131;28;20096;-80
2023/03/20 02:38:18;;;;;;;23.08;12.25;;;5.70;90.20;;;;;;5044176;28;20058;-77
2023/03/20 02:41:13;;;;;;;24.50;11.75;;;5.70;90.20;;;;;;5031552;28;20026;-77
2023/03/20 02:43:47;;;;;;;25.42;12.75;;;5.70;90.10;;;;;;5027631;28;20149;-76
2023/03/20 02:46:18;;;;;;;22.42;11.65;;;5.70;90.10;;;;;;5029435;28;20049;-73
2023/03/20 02:48:57;;;;;;;24.85;12.43;;;5.70;90.20;;;;;;5028896;28;20041;-75
2023/03/20 02:51:46;;;;;;;22.15;11.02;;;5.70;90.20;;;;;;5023515;28;20037;-76
2023/03/20 02:54:24;;;;;;;23.83;11.55;;;5.70;90.20;;;;;;5026723;28;20018;-80
2023/03/20 02:56:58;;;;;;;30.70;13.52;;;5.70;90.10;;;;;;5031550;28;20032;-79
2023/03/20 02:59:55;;;;;;;29.33;13.07;;;5.70;90.10;;;;;;5039015;28;20030;-75
2023/03/20 03:02:31;;;;;;;24.30;12.65;;;5.70;90.20;;;;;;5008234;28;20033;-73
2023/03/20 03:05:01;;;;;;;22.00;11.45;;;5.70;90.20;;;;;;5023714;28;20045;-74
2023/03/20 03:07:31;;;;;;;22.50;12.70;;;5.80;90.20;;;;;;5035497;28;20034;-75
2023/03/20 03:10:06;;;;;;;29.42;12.93;;;5.70;90.20;;;;;;5029780;28;20036;-80
2023/03/20 03:12:34;;;;;;;;;;;5.80;90.20;;;;;;5040857;28;20025;-72
2023/03/20 03:15:06;;;;;;;24.55;12.90;;;5.80;90.30;;;;;;5034330;28;19920;-76
2023/03/20 03:17:35;;;;;;;24.77;12.05;;;5.80;90.40;;;;;;5030208;28;20488;-72
2023/03/20 03:20:08;;;;;;;26.75;13.43;;;5.80;90.30;;;;;;5026204;28;20121;-79
2023/03/20 03:22:35;;;;;;;23.83;12.45;;;5.80;90.30;;;;;;5020054;28;20095;-76
2023/03/20 03:25:01;;;;;;;32.72;13.20;;;5.80;90.30;;;;;;5022419;28;20029;-73
2023/03/20 03:27:40;;;;;;;26.10;13.02;;;5.90;90.30;;;;;;5026688;28;20095;-74
2023/03/20 03:30:14;;;;;;;25.42;12.77;;;5.90;90.40;;;;;;5027982;28;20108;-73
2023/03/20 03:32:43;;;;;;;;;;;5.90;90.30;;;;;;5026692;28;20034;-82
2023/03/20 03:35:15;;;;;;;26.05;14.50;;;5.90;90.30;;;;;;5026213;28;20000;-73
2023/03/20 03:38:02;;;;;;;27.90;14.35;;;5.90;90.30;;;;;;5039301;28;20043;-78
2023/03/20 03:40:48;;;;;;;27.33;15.25;;;5.90;90.30;;;;;;5010304;28;20183;-80
2023/03/20 03:43:32;;;;;;;30.10;14.93;;;5.90;90.20;;;;;;5027462;28;20029;-73
2023/03/20 03:46:07;;;;;;;29.73;16.50;;;5.90;90.20;;;;;;5028067;28;20054;-74
2023/03/20 03:48:44;;;;;;;29.95;15.50;;;5.90;90.20;;;;;;5017559;28;20308;-75
2023/03/20 03:51:15;;;;;;;29.15;15.38;;;5.90;90.20;;;;;;5036840;28;20041;-73
2023/03/20 03:53:48;;;;;;;25.60;14.73;;;5.80;90.30;;;;;;5027159;28;20911;-79
2023/03/20 03:56:18;;;;;;;29.83;15.65;;;5.90;90.30;;;;;;5018494;28;20091;-81
2023/03/20 03:58:51;;;;;;;24.88;15.60;;;5.90;90.30;;;;;;5028441;28;20033;-72
2023/03/20 04:01:18;;;;;;;27.20;14.88;;;5.90;90.40;;;;;;5028329;28;20167;-74
2023/03/20 04:03:51;;;;;;;25.15;14.48;;;5.90;90.40;;;;;;5027108;28;20025;-73
2023/03/20 04:06:18;;;;;;;25.80;14.48;;;5.90;90.40;;;;;;5031271;28;20484;-82
2023/03/20 04:08:44;;;;;;;30.38;15.02;;;5.90;90.40;;;;;;5008339;28;20045;-76
2023/03/20 04:11:24;;;;;;;27.00;14.45;;;5.90;90.40;;;;;;5028424;28;20037;-75
2023/03/20 04:13:51;;;;;;;28.27;14.98;;;5.90;90.30;;;;;;5035375;28;20108;-76
2023/03/20 04:16:19;;;;;;;31.00;15.90;;;5.90;90.30;;;;;;5027021;28;20033;-78
2023/03/20 04:18:46;;;;;;;29.10;15.25;;;5.90;90.30;;;;;;5031350;28;20029;-73
2023/03/20 04:21:12;;;;;;;28.40;14.02;;;5.90;90.40;;;;;;5033456;28;20084;-72
2023/03/20 04:23:38;;;;;;;27.70;13.40;;;5.90;90.40;;;;;;5009593;28;20096;-80
2023/03/20 04:26:05;;;;;;;29.05;13.98;;;6.00;90.40;;;;;;5027704;28;20029;-79
2023/03/20 04:28:30;;;;;;;26.38;14.45;;;6.00;90.40;;;;;;5039944;28;20045;-71
2023/03/20 04:30:58;;;;;;;23.67;13.48;;;6.00;90.30;;;;;;5030190;28;20402;-75
2023/03/20 04:33:25;;;;;;;24.10;13.13;;;6.00;90.30;;;;;;5035304;28;20311;-72
2023/03/20 04:35:51;;;;;;;23.15;12.85;;;6.00;90.20;;;;;;5026237;28;20048;-74
2023/03/20 04:38:18;;;;;;;23.58;13.48;;;6.00;90.20;;;;;;5033844;28;20056;-74
2023/03/20 04:40:44;;;;;;;24.45;12.93;;;6.00;90.30;;;;;;5010581;28;20025;-78
2023/03/20 04:43:10;;;;;;;25.02;12.93;;;6.10;90.20;;;;;;5034119;28;20030;-73
2023/03/20 04:45:35;;;;;;;27.38;13.90;;;6.00;90.20;;;;;;5030738;28;20029;-73
2023/03/20 04:48:01;;;;;;;27.48;13.27;;;6.10;90.30;;;;;;5008430;28;20048;-73
2023/03/20 04:50:27;;;;;;;25.55;12.65;;;6.00;90.40;;;;;;5007651;28;20112;-77
2023/03/20 04:52:52;;;;;;;27.55;13.75;;;6.10;90.50;;;;;;5030592;28;20372;-79
2023/03/20 04:55:19;;;;;;;25.17;13.63;;;6.00;90.60;;;;;;5027470;28;20172;-73
2023/03/20 04:57:44;;;;;;;31.10;14.07;;;6.00;90.60;;;;;;5030364;28;20140;-78
2023/03/20 05:00:11;;;;;;;26.13;12.85;;;6.00;90.60;;;;;;5029825;28;20444;-77
2023/03/20 05:02:36;;;;;;;28.50;13.55;;;6.00;90.70;;;;;;5029544;28;20086;-73
2023/03/20 05:05:03;;;;;;;27.42;13.40;;;6.10;90.60;;;;;;5009104;28;20029;-76
2023/03/20 05:07:28;;;;;;;30.80;13.15;;;6.10;90.60;;;;;;5023875;28;20033;-73
2023/03/20 05:09:54;;;;;;;29.05;13.23;;;6.10;90.60;;;;;;5021454;28;20041;-78
2023/03/20 05:12:21;;;;;;;22.98;12.05;;;6.10;90.50;;;;;;5019984;28;20033;-76
2023/03/20 05:14:47;;;;;;;26.33;12.65;;;6.10;90.50;;;;;;5022196;28;20029;-73
2023/03/20 05:17:13;;;;;;;27.17;12.93;;;6.10;90.50;;;;;;5023842;28;20056;-84
2023/03/20 05:19:38;;;;;;;25.25;12.52;;;6.10;90.50;;;;;;5028321;28;20060;-75
2023/03/20 05:22:04;;;;;;;24.83;12.90;;;6.10;90.50;;;;;;5026596;28;20049;-81
2023/03/20 05:24:30;;;;;;;28.63;13.52;;;6.10;90.40;;;;;;5010520;28;20021;-74
2023/03/20 05:26:56;;;;;;;32.35;14.23;;;6.10;90.50;;;;;;5029217;28;20271;-73
2023/03/20 05:29:22;;;;;;;30.92;13.63;;;6.10;90.40;;;;;;5022512;28;20034;-77
2023/03/20 05:31:47;;;;;;;22.63;12.90;;;6.10;90.40;;;;;;5020381;28;20141;-74
2023/03/20 05:34:13;;;;;;;22.35;11.85;;;6.10;90.40;;;;;;5026453;28;20032;-76
2023/03/20 05:36:39;;;;;;;24.42;13.60;;;6.10;90.40;;;;;;5026497;28;20038;-81
2023/03/20 05:39:05;;;;;;;31.70;13.20;;;6.10;90.40;;;;;;5017627;28;20044;-79
2023/03/20 05:41:30;;;;;;;25.58;12.85;;;6.10;90.40;;;;;;5016924;28;20550;-79
2023/03/20 05:43:56;;;;;;;25.60;13.35;;;6.10;90.40;;;;;;5002246;28;20127;-73
2023/03/20 05:46:22;;;;;;;30.92;13.27;;;6.10;90.40;;;;;;5020903;28;20057;-76
2023/03/20 05:48:48;;;;;;;27.40;13.23;;;6.10;90.30;;;;;;5022135;28;20522;-80
2023/03/20 05:51:13;;;;;;;27.88;12.63;;;6.10;90.30;;;;;;5002204;28;20037;-75
2023/03/20 05:53:39;;;;;;;23.08;11.77;;;6.20;90.30;;;;;;5022915;28;20113;-76
2023/03/20 05:56:05;;;;;;;24.80;12.55;;;6.20;90.20;;;;;;5016617;28;20448;-73
2023/03/20 05:58:31;;;;;;;24.67;12.60;;;6.10;90.20;;;;;;5026366;28;20116;-74
2023/03/20 06:00:57;;;;;;;22.40;12.93;;;6.10;90.20;;;;;;5008621;28;20108;-82
2023/03/20 06:03:23;;;;;;;28.63;13.07;;;6.10;90.10;;;;;;5026940;28;20072;-80
2023/03/20 06:05:49;;;;;;;24.48;13.32;;;6.10;90.10;;;;;;5032191;28;20029;-78
2023/03/20 06:08:14;;;;;;;20.80;11.82;;;6.10;90.20;;;;;;5030976;28;20130;-79
2023/03/20 06:10:41;;;;;;;30.25;12.73;;;6.20;90.10;;;;;;5033415;28;20395;-86
2023/03/20 06:13:06;;;;;;;26.83;12.10;;;6.20;90.10;;;;;;5044509;28;20060;-77
2023/03/20 06:15:32;;;;;;;27.40;13.02;;;6.20;89.90;;;;;;5032595;28;20465;-75
2023/03/20 06:17:58;;;;;;;26.23;13.18;;;6.30;89.90;;;;;;5034641;28;20396;-73
2023/03/20 06:20:24;;;;;;;25.63;12.73;;;6.30;89.90;;;;;;5031990;28;20033;-78
2023/03/20 06:22:50;;;;;;;23.00;12.57;;;6.30;89.90;;;;;;5033158;28;20034;-77
2023/03/20 06:25:16;;;;;;;24.85;12.48;;;6.30;89.80;;;;;;5034433;28;20033;-86
2023/03/20 06:27:42;;;;;;;28.88;13.10;;;6.30;89.70;;;;;;5037055;28;20392;-74
2023/03/20 06:30:09;;;;;;;23.48;12.30;;;6.30;89.80;;;;;;5026731;28;20028;-73
2023/03/20 06:32:35;;;;;;;25.85;11.48;;;6.30;89.80;;;;;;5029410;28;20116;-73
2023/03/20 06:35:00;;;;;;;21.58;11.52;;;6.30;89.80;;;;;;5029312;28;20117;-73
2023/03/20 06:37:26;;;;;;;23.42;11.25;;;6.30;89.70;;;;;;5024537;28;20120;-79
2023/03/20 06:39:52;;;;;;;21.83;10.52;;;6.40;89.70;;;;;;5012570;28;20060;-83
2023/03/20 06:42:17;;;;;;;24.05;11.18;;;6.40;89.70;;;;;;5030479;28;20529;-75
2023/03/20 06:44:43;;;;;;;22.15;11.27;;;6.50;89.60;;;;;;5030618;28;20120;-73
2023/03/20 06:47:09;;;;;;;25.52;11.20;;;6.50;89.50;;;;;;5013173;28;20052;-80
2023/03/20 06:49:35;;;;;;;23.25;11.73;;;6.50;89.30;;;;;;5030060;28;20045;-79
2023/03/20 06:52:00;;;;;;;23.60;10.25;;;6.60;89.40;;;;;;5031950;28;20802;-74
2023/03/20 06:54:26;;;;;;;23.52;9.30;;;6.60;89.20;;;;;;5014678;28;20666;-73
2023/03/20 06:56:52;;;;;;;20.88;9.93;;;6.70;89.10;;;;;;5046502;28;20528;-75
2023/03/20 06:59:18;;;;;;;18.15;9.73;;;6.70;89.00;;;;;;5030205;28;20071;-76
2023/03/20 07:01:43;;;;;;;27.27;10.32;;;6.80;89.00;;;;;;5016428;28;20084;-73
2023/03/20 07:04:09;;;;;;;21.77;10.00;;;6.80;88.80;;;;;;5033915;28;20032;-74
2023/03/20 07:06:35;;;;;;;20.65;8.63;;;6.80;88.70;;;;;;5034205;28;20038;-73
2023/03/20 07:09:01;;;;;;;16.92;8.82;;;6.80;88.60;;;;;;5040839;28;20606;-73
2023/03/20 07:11:27;;;;;;;19.20;9.32;;;6.90;88.60;;;;;;5031557;28;20033;-77
2023/03/20 07:13:53;;;;;;;21.77;9.27;;;6.90;88.40;;;;;;5032515;28;20056;-74
2023/03/20 07:16:19;;;;;;;25.10;8.63;;;7.00;88.30;;;;;;5033275;28;20604;-73
2023/03/20 07:18:45;;;;;;;20.33;8.82;;;7.10;88.10;;;;;;5004802;28;20057;-74
2023/03/20 07:21:19;;;;;;;19.90;8.88;;;7.10;87.80;;;;;;5026007;28;20141;-74
2023/03/20 07:23:45;;;;;;;22.10;8.57;;;7.10;87.40;;;;;;5021741;28;20022;-74
2023/03/20 07:26:11;;;;;;;19.52;8.82;;;7.10;87.40;;;;;;5006067;28;20213;-77
2023/03/20 07:28:37;;;;;;;21.45;8.68;;;7.20;87.30;;;;;;5027377;28;20417;-74
2023/03/20 07:31:03;;;;;;;22.20;8.32;;;7.30;87.30;;;;;;5020054;28;20033;-75
2023/03/20 07:33:28;;;;;;;20.05;7.68;;;7.30;87.10;;;;;;5024562;28;20040;-76
2023/03/20 07:35:54;;;;;;;19.58;9.00;;;7.30;87.00;;;;;;5019593;28;20452;-74
2023/03/20 07:38:21;;;;;;;21.77;8.48;;;7.30;86.80;;;;;;5027675;28;20055;-74
2023/03/20 07:40:48;;;;;;;15.98;7.55;;;7.30;86.70;;;;;;5020990;28;20062;-76
2023/03/20 07:43:15;;;;;;;18.40;8.32;;;7.30;86.70;;;;;;5028163;28;20469;-73
2023/03/20 07:45:41;;;;;;;25.20;8.63;;;7.40;86.50;;;;;;5006451;28;20033;-75
2023/03/20 07:48:07;;;;;;;17.17;8.32;;;7.40;86.40;;;;;;5023622;28;20037;-74
2023/03/20 07:50:32;;;;;;;19.83;7.80;;;7.40;86.10;;;;;;5025098;28;20075;-74
2023/03/20 07:52:58;;;;;;;19.92;8.32;;;7.60;85.90;;;;;;5022919;28;20029;-76
2023/03/20 07:55:25;;;;;;;20.17;8.43;;;7.60;85.60;;;;;;5023903;28;20037;-74
2023/03/20 07:57:51;;;;;;;19.65;9.68;;;7.70;85.60;;;;;;5022822;28;20258;-74
2023/03/20 08:00:17;;;;;;;25.08;9.52;;;7.80;85.20;;;;;;5018272;28;20053;-74
2023/03/20 08:02:43;;;;;;;19.17;8.43;;;7.90;85.50;;;;;;5030126;28;20293;-73
2023/03/20 08:05:09;;;;;;;19.95;9.35;;;8.00;84.80;;;;;;5023573;28;20433;-74
2023/03/20 08:07:35;;;;;;;24.55;9.73;;;8.10;84.60;;;;;;5025752;28;20057;-72
2023/03/20 08:10:02;;;;;;;18.70;8.85;;;8.10;84.40;;;;;;5026055;28;20102;-72
2023/03/20 08:12:27;;;;;;;22.13;8.85;;;8.20;83.90;;;;;;5021467;28;20061;-73
2023/03/20 08:14:53;;;;;;;22.48;8.60;;;8.40;83.60;;;;;;5031847;28;20036;-73
2023/03/20 08:17:19;;;;;;;19.23;9.00;;;8.60;82.90;;;;;;5020258;28;20037;-73
2023/03/20 08:19:45;;;;;;;19.58;8.75;;;8.60;82.50;;;;;;5034845;28;20090;-74
2023/03/20 08:22:11;;;;;;;16.00;8.25;;;8.60;82.10;;;;;;5024221;28;20063;-73
2023/03/20 08:24:37;;;;;;;20.65;8.43;;;8.60;82.00;;;;;;5026701;28;20025;-72
2023/03/20 08:27:03;;;;;;;19.65;8.43;;;8.60;81.80;;;;;;5026156;28;20132;-72
2023/03/20 08:29:29;;;;;;;20.65;9.00;;;8.60;81.70;;;;;;5026214;28;20108;-74
2023/03/20 08:31:56;;;;;;;20.83;8.32;;;8.70;81.90;;;;;;5031214;28;20488;-72
2023/03/20 08:34:21;;;;;;;16.92;8.15;;;8.70;81.60;;;;;;5022307;28;20025;-72
2023/03/20 08:36:47;;;;;;;19.10;8.32;;;8.80;81.30;;;;;;5001138;28;20048;-74
2023/03/20 08:39:13;;;;;;;25.88;8.43;;;8.80;81.20;;;;;;5027556;28;20037;-74
2023/03/20 08:41:40;;;;;;;14.57;7.47;;;8.80;81.10;;;;;;5026092;28;20044;-73
2023/03/20 08:44:06;;;;;;;19.48;8.43;;;8.90;81.40;;;;;;5020111;28;20640;-74
2023/03/20 08:46:32;;;;;;;15.75;7.55;;;9.00;80.90;;;;;;5023364;28;20246;-74
2023/03/20 08:48:59;;;;;;;19.05;8.32;;;9.10;80.40;;;;;;5023452;28;20029;-73
2023/03/20 08:51:26;;;;;;;20.00;8.00;;;9.20;80.30;;;;;;5020639;28;20033;-74
2023/03/20 08:53:52;;;;;;;17.92;7.38;;;9.30;80.10;;;;;;5026569;28;20063;-75
2023/03/20 08:56:17;;;;;;;22.85;8.52;;;9.40;79.60;;;;;;5006657;28;20060;-74
2023/03/20 08:58:43;;;;;;;16.70;7.63;;;9.60;79.20;;;;;;5021472;28;20040;-73
2023/03/20 09:01:09;;;;;;;19.08;7.97;;;9.60;79.40;;;;;;5024644;28;20086;-72
2023/03/20 09:03:36;;;;;;;21.55;8.07;;;9.80;78.80;;;;;;5007362;28;20477;-72
2023/03/20 09:06:05;;;;;;;18.83;7.47;;;9.90;77.70;;;;;;5022394;28;20068;-74
2023/03/20 09:08:31;;;;;;;17.27;6.93;;;10.10;77.50;;;;;;5011552;28;20424;-73
2023/03/20 09:10:57;;;;;;;23.10;7.93;;;10.20;77.50;;;;;;5017363;28;20037;-73
2023/03/20 09:13:24;;;;;;;16.08;6.97;;;10.20;76.20;;;;;;5022085;28;20363;-73
2023/03/20 09:15:50;;;;;;;17.75;7.20;;;10.10;76.30;;;;;;5004201;28;20025;-74
2023/03/20 09:18:17;;;;;;;19.52;7.43;;;10.00;77.20;;;;;;5027279;28;20441;-73
2023/03/20 09:20:44;;;;;;;17.58;7.05;;;9.90;77.40;;;;;;5023203;28;20040;-73
2023/03/20 09:23:10;;;;;;;19.05;6.68;;;10.00;77.20;;;;;;5008291;28;20424;-74
2023/03/20 09:25:35;;;;;;;15.80;7.43;;;10.10;77.10;;;;;;5028394;28;20031;-74
2023/03/20 09:28:01;;;;;;;18.73;7.90;;;10.10;77.00;;;;;;5022075;28;20140;-74
2023/03/20 09:30:27;;;;;;;17.05;7.22;;;10.10;77.00;;;;;;5038711;28;20056;-73
2023/03/20 09:32:52;;;;;;;19.13;7.90;;;10.10;77.00;;;;;;5034244;28;20064;-74
2023/03/20 09:35:18;;;;;;;14.65;7.55;;;10.10;76.90;;;;;;5026885;28;20055;-74
2023/03/20 09:37:44;;;;;;;20.70;8.05;;;10.10;76.70;;;;;;5026708;28;20132;-73
2023/03/20 09:40:29;;;;;;;19.73;7.55;;;10.00;77.10;;;;;;5018848;28;20489;-72
2023/03/20 09:43:03;;;;;;;14.05;7.38;;;10.10;76.70;;;;;;5020621;28;20524;-72
2023/03/20 09:46:07;;;;;;;20.02;7.85;;;10.10;76.90;;;;;;5030599;28;20033;-73
2023/03/20 09:48:53;;;;;;;19.13;8.18;;;10.10;77.50;;;;;;5024559;28;20096;-72
2023/03/20 09:51:49;;;;;;;18.95;7.18;;;10.20;77.10;;;;;;5023916;28;20037;-73
2023/03/20 09:54:27;;;;;;;17.55;8.20;;;10.10;77.90;;;;;;5027469;28;20104;-72
2023/03/20 09:56:55;;;;;;;20.63;7.70;;;10.20;78.80;;;;;;5025659;28;20506;-73
2023/03/20 09:59:24;;;;;;;15.45;7.30;;;10.20;79.50;;;;;;5027028;28;20057;-73
2023/03/20 10:01:59;;;;;;;16.67;7.70;;;10.20;80.00;;;;;;5011034;28;20033;-72
2023/03/20 10:04:26;;;;;;;;;;;10.30;79.50;;;;;;5026645;28;20033;-73
2023/03/20 10:06:52;;;;;;;17.65;7.53;;;10.40;79.30;;;;;;5025009;28;19920;-72
2023/03/20 10:09:27;;;;;;;17.77;8.05;;;10.50;79.00;;;;;;5022583;28;20037;-72
2023/03/20 10:12:11;;;;;;;18.67;7.10;;;10.60;78.30;;;;;;5019676;28;20042;-72
2023/03/20 10:15:04;;;;;;;22.80;8.55;;;10.70;77.60;;;;;;5027670;28;20029;-72
2023/03/20 10:17:33;;;;;;;14.35;7.03;;;10.80;77.10;;;;;;5022388;28;20029;-72
2023/03/20 10:20:10;;;;;;;23.52;7.65;;;10.80;77.00;;;;;;5023863;28;20037;-71
2023/03/20 10:22:41;;;;;;;17.52;7.20;;;10.80;77.30;;;;;;5045279;28;20048;-71
2023/03/20 10:25:23;;;;;;;19.73;8.30;;;10.80;78.20;;;;;;4998964;28;20446;-74
2023/03/20 10:27:58;;;;;;;21.85;7.32;;;10.80;77.80;;;;;;5028356;28;20433;-73
2023/03/20 10:31:00;;;;;;;19.70;7.13;;;11.00;77.60;;;;;;5022888;28;20035;-74
2023/03/20 10:33:25;;;;;;;17.65;6.68;;;11.10;77.60;;;;;;5036141;28;20041;-71
2023/03/20 10:35:58;;;;;;;22.02;8.77;;;11.20;76.90;;;;;;5023844;28;20476;-72
2023/03/20 10:38:36;;;;;;;25.83;8.50;;;11.30;76.20;;;;;;5024542;28;20033;-73
2023/03/20 10:41:03;;;;;;;33.22;17.25;;;11.40;75.40;;;;;;5018782;28;20041;-72
2023/03/20 10:43:34;;;;;;;16.45;7.78;;;11.60;75.60;;;;;;5028450;28;20087;-71
2023/03/20 10:46:12;;;;;;;18.52;7.65;;;11.90;74.00;;;;;;5020901;28;20061;-73
2023/03/20 10:48:53;;;;;;;18.42;8.30;;;12.00;73.40;;;;;;5014270;28;20070;-73
2023/03/20 10:51:22;;;;;;;19.90;7.22;;;11.80;73.00;;;;;;5019896;28;20446;-73
2023/03/20 10:53:48;;;;;;;19.17;7.60;;;11.90;72.70;;;;;;5024305;28;20133;-73
2023/03/20 10:56:34;;;;;;;19.40;7.05;;;12.00;72.90;;;;;;5028168;28;20536;-72
2023/03/20 10:59:09;;;;;;;18.23;7.68;;;12.10;72.10;;;;;;5022291;28;20034;-73
2023/03/20 11:01:35;;;;;;;17.25;7.25;;;12.30;71.40;;;;;;5030712;28;20316;-71
2023/03/20 11:04:01;;;;;;;25.13;7.68;;;12.50;71.40;;;;;;5013983;28;20060;-72
2023/03/20 11:06:32;;;;;;;18.13;7.00;;;12.60;70.50;;;;;;5023196;28;20056;-74
2023/03/20 11:09:11;;;;;;;19.35;7.05;;;12.60;70.10;;;;;;5025068;28;20501;-74
2023/03/20 11:11:43;;;;;;;18.27;6.93;;;12.70;70.10;;;;;;5022676;28;20052;-73
2023/03/20 11:14:17;;;;;;;17.40;6.80;;;12.80;69.50;;;;;;5021260;28;20072;-73
2023/03/20 11:16:48;;;;;;;19.52;7.55;;;12.80;70.30;;;;;;5023753;28;20038;-73
2023/03/20 11:19:16;;;;;;;20.05;7.13;;;12.60;70.40;;;;;;5033803;28;20026;-74
2023/03/20 11:21:51;;;;;;;19.55;7.50;;;12.60;70.70;;;;;;5024826;28;20516;-72
2023/03/20 11:24:40;;;;;;;19.40;7.60;;;12.60;70.20;;;;;;5040605;28;20496;-72
2023/03/20 11:27:07;;;;;;;18.48;7.45;;;12.60;70.80;;;;;;5026188;28;20029;-74
2023/03/20 11:29:33;;;;;;;16.95;7.50;;;12.60;70.90;;;;;;5027242;28;20029;-73
2023/03/20 11:32:33;;;;;;;18.45;7.60;;;12.60;70.60;;;;;;5024921;28;20076;-73
2023/03/20 11:35:26;;;;;;;19.60;7.88;;;12.70;70.70;;;;;;5018664;28;20079;-72
2023/03/20 11:37:55;;;;;;;19.17;7.82;;;12.70;70.90;;;;;;5009612;28;20053;-74
2023/03/20 11:40:22;;;;;;;21.10;7.55;;;12.90;70.50;;;;;;5009519;28;20033;-73
2023/03/20 11:43:03;;;;;;;20.15;8.25;;;12.90;69.90;;;;;;5008393;28;20049;-73
2023/03/20 11:45:38;;;;;;;21.05;7.70;;;13.00;70.50;;;;;;4996283;28;20090;-74
2023/03/20 11:48:05;;;;;;;19.67;7.43;;;13.10;70.10;;;;;;5009363;28;20589;-73
2023/03/20 11:50:33;;;;;;;21.02;8.43;;;13.20;69.60;;;;;;5012182;28;20293;-74
2023/03/20 11:53:01;;;;;;;22.02;9.15;;;13.10;69.70;;;;;;4998155;28;20470;-74
2023/03/20 11:55:32;;;;;;;25.50;8.55;;;13.00;69.30;;;;;;5011378;28;20033;-73
2023/03/20 11:58:00;;;;;;;23.17;8.68;;;12.90;69.60;;;;;;5022054;28;20452;-74
2023/03/20 12:00:34;;;;;;;20.92;7.82;;;12.90;70.40;;;;;;5012770;28;20135;-72
2023/03/20 12:03:00;;;;;;;19.33;7.45;;;12.80;70.60;;;;;;5010799;28;20468;-73
2023/03/20 12:05:31;;;;;;;18.48;8.27;;;12.80;70.90;;;;;;5007140;28;20659;-74
2023/03/20 12:08:05;;;;;;;20.00;8.48;;;12.80;70.70;;;;;;5014556;28;20026;-73
2023/03/20 12:10:40;;;;;;;20.23;8.52;;;13.00;70.70;;;;;;5012759;28;20054;-75
2023/03/20 12:13:18;;;;;;;18.20;7.50;;;13.20;70.10;;;;;;5013101;28;20033;-74
2023/03/20 12:15:50;;;;;;;23.63;8.18;;;13.60;69.40;;;;;;5011879;28;20533;-74
2023/03/20 12:18:19;;;;;;;17.70;7.82;;;13.80;69.10;;;;;;5010152;28;20087;-73
2023/03/20 12:21:13;;;;;;;21.55;9.65;;;13.80;68.80;;;;;;5011272;28;20032;-74
2023/03/20 12:23:55;;;;;;;19.25;8.23;;;13.80;68.10;;;;;;5012477;28;20026;-74
2023/03/20 12:26:27;;;;;;;17.50;7.50;;;13.60;69.30;;;;;;5026438;28;20116;-74
2023/03/20 12:29:05;;;;;;;17.27;7.03;;;13.60;69.30;;;;;;5011613;28;20040;-73
2023/03/20 12:31:49;;;;;;;19.95;7.20;;;13.60;69.70;;;;;;5020889;28;20051;-73
2023/03/20 12:34:26;;;;;;;20.40;8.40;;;13.50;69.90;;;;;;5027684;28;20075;-76
2023/03/20 12:36:56;;;;;;;23.58;7.47;;;13.40;70.70;;;;;;5020077;28;20381;-75
2023/03/20 12:39:27;;;;;;;18.88;6.75;;;13.40;71.10;;;;;;5026184;28;20127;-74
2023/03/20 12:42:13;;;;;;;18.75;6.97;;;13.50;70.50;;;;;;5019689;28;20544;-73
2023/03/20 12:44:50;;;;;;;22.08;7.47;;;13.30;70.40;;;;;;5021666;28;20120;-74
2023/03/20 12:47:43;;;;;;;17.42;6.47;;;13.20;71.10;;;;;;5028724;28;20061;-72
2023/03/20 12:50:25;;;;;;;22.50;7.13;;;13.10;71.50;;;;;;5020258;28;20035;-73
2023/03/20 12:53:22;;;;;;;19.05;6.60;;;13.20;71.60;;;;;;5025342;28;20117;-73
2023/03/20 12:56:00;;;;;;;20.75;7.47;;;13.10;71.60;;;;;;5019360;28;20064;-74
2023/03/20 12:58:42;;;;;;;21.13;6.53;;;13.00;72.10;;;;;;5027533;28;20472;-73